createdAt,value
2024-03-14T00:00:31.227Z,8.00
2024-03-14T00:02:59.986Z,8.00
2024-03-14T00:05:28.027Z,8.00
2024-03-14T00:07:58.281Z,8.00
2024-03-14T00:10:26.449Z,8.00
2024-03-14T00:12:54.915Z,7.90
2024-03-14T00:15:24.743Z,8.00
2024-03-14T00:17:51.679Z,7.90
2024-03-14T00:20:22.762Z,8.00
2024-03-14T00:22:50.414Z,8.00
2024-03-14T00:25:17.971Z,7.90
2024-03-14T00:27:45.675Z,8.00
2024-03-14T00:30:16.620Z,7.90
2024-03-14T00:32:43.807Z,7.90
2024-03-14T00:35:14.671Z,7.90
2024-03-14T00:37:42.192Z,7.90
2024-03-14T00:40:10.959Z,7.90
2024-03-14T00:42:38.762Z,7.90
2024-03-14T00:45:07.747Z,7.90
2024-03-14T00:47:35.421Z,7.90
2024-03-14T00:50:10.313Z,7.90
2024-03-14T00:52:38.720Z,7.90
2024-03-14T00:55:11.544Z,7.90
2024-03-14T00:57:40.313Z,7.90
2024-03-14T01:00:14.338Z,7.80
2024-03-14T01:02:43.268Z,7.90
2024-03-14T01:05:13.195Z,7.90
2024-03-14T01:07:41.105Z,7.80
2024-03-14T01:10:08.373Z,7.80
2024-03-14T01:12:36.745Z,7.80
2024-03-14T01:15:07.903Z,7.90
2024-03-14T01:17:35.646Z,7.90
2024-03-14T01:20:04.264Z,7.90
2024-03-14T01:22:33.105Z,7.90
2024-03-14T01:25:01.896Z,7.90
2024-03-14T01:27:29.260Z,7.90
2024-03-14T01:29:56.226Z,8.00
2024-03-14T01:32:23.104Z,8.00
2024-03-14T01:34:51.658Z,8.00
2024-03-14T01:37:18.572Z,7.90
2024-03-14T01:39:45.474Z,7.90
2024-03-14T01:42:13.875Z,8.00
2024-03-14T01:44:58.892Z,8.00
2024-03-14T01:47:26.066Z,7.90
2024-03-14T01:49:54.530Z,7.90
2024-03-14T01:52:23.141Z,7.90
2024-03-14T01:54:50.514Z,7.90
2024-03-14T01:57:19.193Z,8.00
2024-03-14T01:59:54.061Z,8.00
2024-03-14T02:02:25.079Z,8.00
2024-03-14T02:05:13.367Z,8.00
2024-03-14T02:07:42.147Z,8.00
2024-03-14T02:10:13.911Z,7.90
2024-03-14T02:12:42.824Z,8.00
2024-03-14T02:15:10.107Z,8.00
2024-03-14T02:17:39.311Z,8.00
2024-03-14T02:20:07.665Z,8.00
2024-03-14T02:22:35.769Z,8.00
2024-03-14T02:25:02.766Z,8.00
2024-03-14T02:27:30.430Z,8.10
2024-03-14T02:29:58.611Z,8.00
2024-03-14T02:32:27.010Z,8.00
2024-03-14T02:34:54.879Z,8.00
2024-03-14T02:37:21.807Z,8.00
2024-03-14T02:39:49.266Z,8.00
2024-03-14T02:42:16.257Z,8.10
2024-03-14T02:44:44.906Z,7.90
2024-03-14T02:47:12.062Z,8.00
2024-03-14T02:49:40.796Z,8.00
2024-03-14T02:52:08.609Z,8.00
2024-03-14T02:54:38.376Z,7.90
2024-03-14T02:57:05.916Z,8.00
2024-03-14T02:59:33.514Z,7.90
2024-03-14T03:02:02.705Z,7.90
2024-03-14T03:04:32.188Z,8.00
2024-03-14T03:07:06.869Z,8.00
2024-03-14T03:09:40.533Z,8.00
2024-03-14T03:12:07.958Z,8.00
2024-03-14T03:14:35.975Z,7.90
2024-03-14T03:17:03.300Z,7.90
2024-03-14T03:19:30.346Z,7.90
2024-03-14T03:22:00.624Z,8.00
2024-03-14T03:24:27.719Z,8.00
2024-03-14T03:26:54.759Z,8.00
2024-03-14T03:29:21.930Z,8.00
2024-03-14T03:31:48.883Z,7.90
2024-03-14T03:34:16.943Z,7.90
2024-03-14T03:36:48.018Z,7.90
2024-03-14T03:39:15.180Z,7.80
2024-03-14T03:41:42.084Z,7.90
2024-03-14T03:44:10.189Z,7.90
2024-03-14T03:46:44.149Z,7.90
2024-03-14T03:49:11.149Z,7.90
2024-03-14T03:51:38.550Z,7.90
2024-03-14T03:54:06.076Z,7.90
2024-03-14T03:56:33.049Z,7.90
2024-03-14T03:59:00.760Z,7.90
2024-03-14T04:01:28.696Z,7.90
2024-03-14T04:03:57.084Z,7.90
2024-03-14T04:06:25.173Z,7.90
2024-03-14T04:08:57.252Z,7.80
2024-03-14T04:11:24.227Z,7.80
2024-03-14T04:13:55.086Z,7.80
2024-03-14T04:16:23.142Z,7.80
2024-03-14T04:18:50.877Z,7.70
2024-03-14T04:21:18.282Z,7.60
2024-03-14T04:23:48.063Z,7.60
2024-03-14T04:26:17.653Z,7.50
2024-03-14T04:28:45.560Z,7.40
2024-03-14T04:31:12.839Z,7.40
2024-03-14T04:33:41.666Z,7.30
2024-03-14T04:36:10.632Z,7.20
2024-03-14T04:38:39.263Z,7.10
2024-03-14T04:41:16.772Z,7.00
2024-03-14T04:43:48.837Z,7.00
2024-03-14T04:46:18.854Z,6.90
2024-03-14T04:48:46.919Z,6.80
2024-03-14T04:51:14.360Z,6.80
2024-03-14T04:53:42.109Z,6.70
2024-03-14T04:56:09.638Z,6.60
2024-03-14T04:58:39.269Z,6.60
2024-03-14T05:01:06.779Z,6.60
2024-03-14T05:03:34.397Z,6.50
2024-03-14T05:06:02.187Z,6.60
2024-03-14T05:08:29.863Z,6.50
2024-03-14T05:10:56.777Z,6.50
2024-03-14T05:13:26.415Z,6.50
2024-03-14T05:15:55.591Z,6.40
2024-03-14T05:18:23.124Z,6.40
2024-03-14T05:20:54.614Z,6.40
2024-03-14T05:23:22.346Z,6.30
2024-03-14T05:25:49.595Z,6.30
2024-03-14T05:28:17.765Z,6.30
2024-03-14T05:30:44.678Z,6.30
2024-03-14T05:33:11.654Z,6.50
2024-03-14T05:35:38.722Z,6.50
2024-03-14T05:38:05.716Z,6.50
2024-03-14T05:40:32.631Z,6.60
2024-03-14T05:43:00.903Z,6.60
2024-03-14T05:45:27.960Z,6.50
2024-03-14T05:48:12.340Z,6.40
2024-03-14T05:50:40.342Z,6.50
2024-03-14T05:53:10.912Z,6.50
2024-03-14T05:55:38.076Z,6.50
2024-03-14T05:58:06.845Z,6.40
2024-03-14T06:00:34.161Z,6.40
2024-03-14T06:03:03.200Z,6.40
2024-03-14T06:05:32.561Z,6.40
2024-03-14T06:07:59.621Z,6.40
2024-03-14T06:10:26.826Z,6.50
2024-03-14T06:12:54.661Z,6.50
2024-03-14T06:15:22.346Z,6.50
2024-03-14T06:17:52.942Z,6.50
2024-03-14T06:20:23.947Z,6.50
2024-03-14T06:22:51.134Z,6.60
2024-03-14T06:25:19.343Z,6.50
2024-03-14T06:27:47.197Z,6.50
2024-03-14T06:30:17.627Z,6.50
2024-03-14T06:32:51.300Z,6.40
2024-03-14T06:35:21.015Z,6.50
2024-03-14T06:37:48.159Z,6.50
2024-03-14T06:40:19.127Z,6.60
2024-03-14T06:42:47.220Z,6.60
2024-03-14T06:45:14.235Z,6.60
2024-03-14T06:47:43.901Z,6.70
2024-03-14T06:50:11.493Z,6.70
2024-03-14T06:52:39.117Z,6.80
2024-03-14T06:55:11.773Z,6.90
2024-03-14T06:57:41.302Z,7.00
2024-03-14T07:00:19.239Z,7.10
2024-03-14T07:02:49.930Z,7.10
2024-03-14T07:05:17.562Z,7.20
2024-03-14T07:07:46.823Z,7.20
2024-03-14T07:10:15.231Z,7.30
2024-03-14T07:12:49.016Z,7.30
2024-03-14T07:15:23.372Z,7.40
2024-03-14T07:17:51.857Z,7.50
2024-03-14T07:20:26.304Z,7.60
2024-03-14T07:22:53.398Z,7.60
2024-03-14T07:25:23.207Z,7.70
2024-03-14T07:27:50.194Z,7.80
2024-03-14T07:30:17.719Z,7.80
2024-03-14T07:32:48.936Z,7.90
2024-03-14T07:35:16.714Z,8.00
2024-03-14T07:37:46.115Z,8.10
2024-03-14T07:40:13.718Z,8.30
2024-03-14T07:42:40.880Z,8.40
2024-03-14T07:45:14.502Z,8.50
2024-03-14T07:47:43.288Z,8.50
2024-03-14T07:50:11.552Z,8.60
2024-03-14T07:52:40.415Z,8.70
2024-03-14T07:55:11.257Z,8.80
2024-03-14T07:57:38.413Z,8.90
2024-03-14T08:00:11.161Z,9.00
2024-03-14T08:02:43.348Z,9.00
2024-03-14T08:05:10.857Z,9.00
2024-03-14T08:07:39.688Z,9.20
2024-03-14T08:10:09.808Z,9.20
2024-03-14T08:12:37.816Z,9.20
2024-03-14T08:15:27.331Z,9.20
2024-03-14T08:17:54.939Z,9.30
2024-03-14T08:20:26.237Z,9.40
2024-03-14T08:22:54.164Z,9.40
2024-03-14T08:25:21.381Z,9.40
2024-03-14T08:27:49.080Z,9.50
2024-03-14T08:30:16.682Z,9.50
2024-03-14T08:32:44.655Z,9.60
2024-03-14T08:35:17.681Z,9.60
2024-03-14T08:37:45.186Z,9.40
2024-03-14T08:40:13.316Z,9.40
2024-03-14T08:42:48.828Z,9.40
2024-03-14T08:45:18.215Z,9.50
2024-03-14T08:47:46.783Z,9.60
2024-03-14T08:50:16.878Z,9.60
2024-03-14T08:52:44.020Z,9.60
2024-03-14T08:55:25.441Z,9.60
2024-03-14T08:57:53.274Z,9.70
2024-03-14T09:00:23.687Z,9.80
2024-03-14T09:02:52.077Z,9.90
2024-03-14T09:05:19.277Z,9.80
2024-03-14T09:07:47.381Z,9.70
2024-03-14T09:10:17.395Z,9.90
2024-03-14T09:12:49.497Z,10.10
2024-03-14T09:15:17.196Z,10.20
2024-03-14T09:17:44.156Z,10.40
2024-03-14T09:20:16.309Z,10.30
2024-03-14T09:22:54.967Z,10.60
2024-03-14T09:25:27.808Z,10.70
2024-03-14T09:27:54.836Z,10.80
2024-03-14T09:30:24.205Z,10.80
2024-03-14T09:32:52.329Z,10.60
2024-03-14T09:35:27.572Z,10.60
2024-03-14T09:37:56.200Z,10.70
2024-03-14T09:40:24.637Z,10.90
2024-03-14T09:43:01.291Z,10.90
2024-03-14T09:45:31.057Z,10.90
2024-03-14T09:47:59.100Z,10.90
2024-03-14T09:50:28.145Z,11.00
2024-03-14T09:52:56.677Z,10.80
2024-03-14T09:55:25.578Z,11.00
2024-03-14T09:57:54.319Z,11.30
2024-03-14T10:00:21.552Z,11.50
2024-03-14T10:02:54.316Z,11.60
2024-03-14T10:05:22.966Z,11.70
2024-03-14T10:07:53.692Z,11.80
2024-03-14T10:10:22.701Z,11.80
2024-03-14T10:12:53.189Z,12.00
2024-03-14T10:15:30.545Z,11.90
2024-03-14T10:17:58.908Z,11.90
2024-03-14T10:20:27.349Z,11.90
2024-03-14T10:22:55.905Z,12.00
2024-03-14T10:25:25.794Z,12.10
2024-03-14T10:28:05.625Z,12.20
2024-03-14T10:30:48.476Z,12.30
2024-03-14T10:33:17.989Z,12.40
2024-03-14T10:35:46.900Z,12.20
2024-03-14T10:38:18.898Z,12.30
2024-03-14T10:40:47.952Z,12.30
2024-03-14T10:43:17.785Z,12.20
2024-03-14T10:45:45.168Z,12.30
2024-03-14T10:48:15.571Z,12.50
2024-03-14T10:50:43.871Z,12.70
2024-03-14T10:53:13.174Z,12.60
2024-03-14T10:55:43.463Z,12.80
2024-03-14T10:58:12.993Z,12.90
2024-03-14T11:00:40.735Z,13.10
2024-03-14T11:03:08.322Z,13.40
2024-03-14T11:05:35.666Z,13.80
2024-03-14T11:08:04.665Z,14.00
2024-03-14T11:10:35.356Z,14.20
2024-03-14T11:13:07.162Z,14.30
2024-03-14T11:15:41.447Z,14.10
2024-03-14T11:18:14.622Z,14.20
2024-03-14T11:20:53.572Z,14.20
2024-03-14T11:23:31.675Z,14.40
2024-03-14T11:26:08.825Z,14.60
2024-03-14T11:28:38.715Z,14.90
2024-03-14T11:31:08.457Z,15.20
2024-03-14T11:33:37.014Z,15.40
2024-03-14T11:36:09.108Z,15.40
2024-03-14T11:38:36.009Z,14.90
2024-03-14T11:41:04.711Z,14.50
2024-03-14T11:43:37.312Z,14.50
2024-03-14T11:46:06.406Z,14.50
2024-03-14T11:48:34.947Z,14.60
2024-03-14T11:51:08.893Z,14.40
2024-03-14T11:53:36.233Z,14.10
2024-03-14T11:56:10.470Z,14.10
2024-03-14T11:58:43.472Z,14.10
2024-03-14T12:01:21.968Z,14.10
2024-03-14T12:03:59.021Z,14.10
2024-03-14T12:06:36.049Z,14.10
2024-03-14T12:09:05.612Z,13.80
2024-03-14T12:11:48.576Z,13.90
2024-03-14T12:14:19.954Z,14.10
2024-03-14T12:16:50.292Z,14.40
2024-03-14T12:19:17.999Z,14.70
2024-03-14T12:22:01.653Z,15.00
2024-03-14T12:24:30.335Z,15.20
2024-03-14T12:26:58.835Z,15.00
2024-03-14T12:29:26.465Z,14.90
2024-03-14T12:31:56.445Z,14.70
2024-03-14T12:34:23.891Z,14.70
2024-03-14T12:36:53.613Z,14.80
2024-03-14T12:39:20.934Z,15.00
2024-03-14T12:41:48.150Z,15.00
2024-03-14T12:44:20.096Z,15.10
2024-03-14T12:46:48.665Z,14.90
2024-03-14T12:49:17.222Z,14.80
2024-03-14T12:51:44.224Z,14.90
2024-03-14T12:54:13.087Z,14.90
2024-03-14T12:56:46.602Z,14.90
2024-03-14T12:59:23.563Z,15.10
2024-03-14T13:01:55.026Z,15.00
2024-03-14T13:04:21.998Z,15.40
2024-03-14T13:06:49.043Z,15.90
2024-03-14T13:09:21.615Z,16.00
2024-03-14T13:12:20.546Z,16.00
2024-03-14T13:15:13.202Z,16.10
2024-03-14T13:17:55.622Z,16.50
2024-03-14T13:20:27.200Z,16.90
2024-03-14T13:22:54.592Z,17.10
2024-03-14T13:25:25.600Z,17.00
2024-03-14T13:27:53.040Z,16.90
2024-03-14T13:30:22.923Z,17.00
2024-03-14T13:32:56.638Z,17.10
2024-03-14T13:35:27.666Z,17.00
2024-03-14T13:37:59.594Z,17.00
2024-03-14T13:40:27.005Z,17.50
2024-03-14T13:42:54.057Z,17.70
2024-03-14T13:45:21.347Z,17.60
2024-03-14T13:47:48.489Z,17.20
2024-03-14T13:50:20.215Z,16.90
2024-03-14T13:53:07.443Z,16.80
2024-03-14T13:55:41.700Z,16.60
2024-03-14T13:58:08.915Z,16.40
2024-03-14T14:01:01.162Z,16.40
2024-03-14T14:03:29.194Z,16.40
2024-03-14T14:06:01.300Z,16.80
2024-03-14T14:08:31.311Z,16.90
2024-03-14T14:10:59.094Z,17.20
2024-03-14T14:13:26.850Z,17.50
2024-03-14T14:15:54.039Z,17.70
2024-03-14T14:18:21.180Z,17.70
2024-03-14T14:20:48.197Z,17.40
2024-03-14T14:23:16.879Z,17.40
2024-03-14T14:25:45.840Z,17.40
2024-03-14T14:28:13.187Z,17.20
2024-03-14T14:30:43.270Z,17.20
2024-03-14T14:33:16.288Z,17.30
2024-03-14T14:35:44.703Z,17.20
2024-03-14T14:38:13.587Z,17.30
2024-03-14T14:40:40.646Z,17.40
2024-03-14T14:43:07.589Z,17.40
2024-03-14T14:45:38.827Z,17.50
2024-03-14T14:48:06.373Z,17.60
2024-03-14T14:50:33.366Z,17.70
2024-03-14T14:53:01.523Z,17.70
2024-03-14T14:55:30.114Z,17.70
2024-03-14T14:58:00.008Z,18.00
2024-03-14T15:00:30.188Z,17.80
2024-03-14T15:02:57.964Z,18.10
2024-03-14T15:05:24.859Z,18.30
2024-03-14T15:07:51.931Z,18.30
2024-03-14T15:10:21.762Z,18.20
2024-03-14T15:12:54.179Z,18.60
2024-03-14T15:15:28.269Z,18.50
2024-03-14T15:18:00.861Z,19.00
2024-03-14T15:20:28.238Z,18.40
2024-03-14T15:22:56.365Z,18.80
2024-03-14T15:25:26.046Z,19.20
2024-03-14T15:27:54.586Z,19.30
2024-03-14T15:30:25.147Z,19.60
2024-03-14T15:32:52.629Z,19.40
2024-03-14T15:35:20.859Z,18.70
2024-03-14T15:37:47.861Z,17.80
2024-03-14T15:40:15.710Z,17.00
2024-03-14T15:42:43.573Z,16.30
2024-03-14T15:45:19.279Z,16.00
2024-03-14T15:47:47.595Z,15.70
2024-03-14T15:50:18.105Z,15.70
2024-03-14T15:52:45.757Z,15.70
2024-03-14T15:55:15.793Z,15.60
2024-03-14T15:57:49.040Z,15.60
2024-03-14T16:00:18.120Z,15.60
2024-03-14T16:02:45.902Z,15.70
2024-03-14T16:05:17.191Z,15.70
2024-03-14T16:07:48.216Z,15.50
2024-03-14T16:10:16.520Z,15.30
2024-03-14T16:12:43.987Z,15.20
2024-03-14T16:15:15.958Z,14.90
2024-03-14T16:17:45.442Z,14.60
2024-03-14T16:20:35.611Z,14.20
2024-03-14T16:23:05.775Z,14.00
2024-03-14T16:25:37.384Z,13.70
2024-03-14T16:28:05.397Z,13.50
2024-03-14T16:30:32.965Z,13.20
2024-03-14T16:33:04.837Z,13.00
2024-03-14T16:35:35.994Z,12.90
2024-03-14T16:38:05.440Z,12.70
2024-03-14T16:40:33.957Z,12.50
2024-03-14T16:43:05.718Z,12.30
2024-03-14T16:45:43.245Z,12.10
2024-03-14T16:48:12.018Z,11.90
2024-03-14T16:50:40.644Z,11.90
2024-03-14T16:53:11.470Z,11.70
2024-03-14T16:55:38.452Z,11.70
2024-03-14T16:58:05.902Z,11.50
2024-03-14T17:00:33.439Z,11.50
2024-03-14T17:03:01.145Z,11.40
2024-03-14T17:05:30.483Z,11.40
2024-03-14T17:07:58.289Z,11.30
2024-03-14T17:10:26.587Z,11.20
2024-03-14T17:12:55.957Z,11.10
2024-03-14T17:15:23.592Z,11.00
2024-03-14T17:17:53.590Z,10.90
2024-03-14T17:20:20.660Z,10.80
2024-03-14T17:22:48.444Z,10.80
2024-03-14T17:25:16.504Z,10.70
2024-03-14T17:27:45.905Z,10.60
2024-03-14T17:30:17.972Z,10.60
2024-03-14T17:32:45.966Z,10.50
2024-03-14T17:35:13.666Z,10.40
2024-03-14T17:37:45.237Z,10.40
2024-03-14T17:40:13.722Z,10.30
2024-03-14T17:42:45.245Z,10.30
2024-03-14T17:45:20.968Z,10.20
2024-03-14T17:47:48.691Z,10.20
2024-03-14T17:50:17.066Z,10.10
2024-03-14T17:52:47.299Z,10.10
2024-03-14T17:55:15.876Z,10.00
2024-03-14T17:57:47.329Z,10.00
2024-03-14T18:00:17.615Z,9.90
2024-03-14T18:02:48.451Z,9.90
2024-03-14T18:05:16.101Z,9.80
2024-03-14T18:07:45.846Z,9.70
2024-03-14T18:10:17.620Z,9.70
2024-03-14T18:12:46.880Z,9.70
2024-03-14T18:15:17.498Z,9.70
2024-03-14T18:17:45.634Z,9.60
2024-03-14T18:20:14.366Z,9.60
2024-03-14T18:22:50.931Z,9.60
2024-03-14T18:25:19.570Z,9.60
2024-03-14T18:27:50.449Z,9.60
2024-03-14T18:30:22.266Z,9.60
2024-03-14T18:32:52.517Z,9.60
2024-03-14T18:35:23.330Z,9.50
2024-03-14T18:37:54.241Z,9.50
2024-03-14T18:40:28.550Z,9.50
2024-03-14T18:42:59.336Z,9.50
2024-03-14T18:45:27.856Z,9.50
2024-03-14T18:47:56.413Z,9.50
2024-03-14T18:50:23.458Z,9.50
2024-03-14T18:52:53.389Z,9.40
2024-03-14T18:55:22.248Z,9.40
2024-03-14T18:57:50.377Z,9.40
2024-03-14T19:00:21.381Z,9.40
2024-03-14T19:02:50.251Z,9.40
2024-03-14T19:05:18.288Z,9.40
2024-03-14T19:07:45.707Z,9.30
2024-03-14T19:10:12.574Z,9.20
2024-03-14T19:12:41.830Z,9.20
2024-03-14T19:15:12.529Z,9.20
2024-03-14T19:17:40.647Z,9.20
2024-03-14T19:20:13.638Z,9.20
2024-03-14T19:22:41.750Z,9.10
2024-03-14T19:25:11.235Z,9.10
2024-03-14T19:27:40.770Z,9.10
2024-03-14T19:30:14.313Z,9.20
2024-03-14T19:32:41.460Z,9.30
2024-03-14T19:35:10.853Z,9.30
2024-03-14T19:37:38.599Z,9.20
2024-03-14T19:40:09.896Z,9.20
2024-03-14T19:42:37.102Z,9.20
2024-03-14T19:45:11.661Z,9.30
2024-03-14T19:47:39.203Z,9.30
2024-03-14T19:50:11.298Z,9.40
2024-03-14T19:52:38.197Z,9.40
2024-03-14T19:55:06.822Z,9.40
2024-03-14T19:57:38.319Z,9.50
2024-03-14T20:00:17.749Z,9.50
2024-03-14T20:02:47.989Z,9.50
2024-03-14T20:05:17.193Z,9.50
2024-03-14T20:07:44.798Z,9.50
2024-03-14T20:10:24.795Z,9.50
2024-03-14T20:12:57.814Z,9.50
2024-03-14T20:15:27.275Z,9.50
2024-03-14T20:17:56.491Z,9.40
2024-03-14T20:20:24.440Z,9.40
2024-03-14T20:22:53.705Z,9.40
2024-03-14T20:25:20.802Z,9.40
2024-03-14T20:27:47.789Z,9.40
2024-03-14T20:30:15.194Z,9.40
2024-03-14T20:32:47.443Z,9.40
2024-03-14T20:35:17.087Z,9.40
2024-03-14T20:37:44.441Z,9.40
2024-03-14T20:40:13.400Z,9.50
2024-03-14T20:42:41.444Z,9.50
2024-03-14T20:45:08.744Z,9.50
2024-03-14T20:47:35.948Z,9.60
2024-03-14T20:50:05.479Z,9.60
2024-03-14T20:52:32.854Z,9.50
2024-03-14T20:55:22.347Z,9.60
2024-03-14T20:58:04.181Z,9.50
2024-03-14T21:00:32.920Z,9.50
2024-03-14T21:03:00.533Z,9.40
2024-03-14T21:05:28.890Z,9.40
2024-03-14T21:07:59.458Z,9.50
2024-03-14T21:10:27.564Z,9.40
2024-03-14T21:12:55.377Z,9.30
2024-03-14T21:15:23.287Z,9.30
2024-03-14T21:17:50.514Z,9.20
2024-03-14T21:20:19.734Z,9.20
2024-03-14T21:22:47.120Z,9.30
2024-03-14T21:25:14.438Z,9.30
2024-03-14T21:27:41.560Z,9.30
2024-03-14T21:30:11.885Z,9.20
2024-03-14T21:32:43.781Z,9.20
2024-03-14T21:35:14.348Z,9.20
2024-03-14T21:37:41.883Z,9.30
2024-03-14T21:40:11.288Z,9.30
2024-03-14T21:42:40.702Z,9.30
2024-03-14T21:45:10.993Z,9.30
2024-03-14T21:47:38.342Z,9.30
2024-03-14T21:50:05.693Z,9.30
2024-03-14T21:52:34.852Z,9.30
2024-03-14T21:55:05.014Z,9.30
2024-03-14T21:57:32.102Z,9.30
2024-03-14T22:00:04.468Z,9.30
2024-03-14T22:02:33.559Z,9.30
2024-03-14T22:05:01.137Z,9.30
2024-03-14T22:07:28.508Z,9.40
2024-03-14T22:09:59.099Z,9.40
2024-03-14T22:12:28.262Z,9.40
2024-03-14T22:14:57.279Z,9.50
2024-03-14T22:17:26.544Z,9.60
2024-03-14T22:19:53.477Z,9.60
2024-03-14T22:22:20.390Z,9.60
2024-03-14T22:24:47.274Z,9.60
2024-03-14T22:27:14.394Z,9.60
2024-03-14T22:29:43.449Z,9.50
2024-03-14T22:32:10.359Z,9.50
2024-03-14T22:34:39.205Z,9.40
2024-03-14T22:37:06.247Z,9.40
2024-03-14T22:39:36.570Z,9.30
2024-03-14T22:42:03.622Z,9.30
2024-03-14T22:44:30.976Z,9.30
2024-03-14T22:46:58.390Z,9.30
2024-03-14T22:49:25.700Z,9.40
2024-03-14T22:51:52.917Z,9.40
2024-03-14T22:54:19.938Z,9.40
2024-03-14T22:56:51.094Z,9.50
2024-03-14T22:59:18.505Z,9.50
2024-03-14T23:01:45.828Z,9.40
2024-03-14T23:04:16.141Z,9.40
2024-03-14T23:06:44.214Z,9.40
2024-03-14T23:09:12.959Z,9.30
2024-03-14T23:11:41.532Z,9.30
2024-03-14T23:14:09.473Z,9.30
2024-03-14T23:16:37.060Z,9.30
2024-03-14T23:19:04.453Z,9.20
2024-03-14T23:21:32.064Z,9.20
2024-03-14T23:24:04.224Z,9.20
2024-03-14T23:26:33.904Z,9.20
2024-03-14T23:29:03.723Z,9.10
2024-03-14T23:31:31.455Z,9.20
2024-03-14T23:34:00.162Z,9.10
2024-03-14T23:36:28.511Z,9.00
2024-03-14T23:38:57.578Z,9.10
2024-03-14T23:41:24.556Z,9.10
2024-03-14T23:43:53.865Z,9.20
2024-03-14T23:46:21.672Z,9.20
2024-03-14T23:48:49.378Z,9.30
2024-03-14T23:51:16.698Z,9.30
2024-03-14T23:53:44.932Z,9.40
2024-03-14T23:56:12.732Z,9.60
2024-03-14T23:58:39.883Z,9.60
